sensor_id;sensor_type;location;lat;lon;timestamp;P1;durP1;ratioP1;P2;durP2;ratioP2
36303;SDS011;22335;49.800;8.596;2024-03-23T00:59:07;23.25;;;21.15;;
36303;SDS011;22335;49.800;8.596;2024-03-23T01:05:49;22.65;;;20.55;;
36303;SDS011;22335;49.800;8.596;2024-03-23T01:12:34;24.33;;;22.33;;
36303;SDS011;22335;49.800;8.596;2024-03-23T01:19:17;24.45;;;22.10;;
36303;SDS011;22335;49.800;8.596;2024-03-23T01:25:59;24.55;;;22.25;;
36303;SDS011;22335;49.800;8.596;2024-03-23T01:32:43;24.35;;;22.17;;
36303;SDS011;22335;49.800;8.596;2024-03-23T01:39:27;25.13;;;22.65;;
36303;SDS011;22335;49.800;8.596;2024-03-23T01:46:09;25.77;;;23.42;;
36303;SDS011;22335;49.800;8.596;2024-03-23T01:52:53;25.92;;;23.60;;
36303;SDS011;22335;49.800;8.596;2024-03-23T01:59:36;26.45;;;24.02;;
36303;SDS011;22335;49.800;8.596;2024-03-23T02:06:20;26.42;;;24.02;;
36303;SDS011;22335;49.800;8.596;2024-03-23T02:13:04;28.42;;;25.58;;
36303;SDS011;22335;49.800;8.596;2024-03-23T02:19:47;27.30;;;24.80;;
36303;SDS011;22335;49.800;8.596;2024-03-23T02:26:31;27.95;;;25.15;;
36303;SDS011;22335;49.800;8.596;2024-03-23T02:33:14;26.75;;;24.23;;
36303;SDS011;22335;49.800;8.596;2024-03-23T02:39:56;27.50;;;24.92;;
36303;SDS011;22335;49.800;8.596;2024-03-23T02:46:40;27.63;;;24.98;;
36303;SDS011;22335;49.800;8.596;2024-03-23T02:53:23;27.90;;;25.33;;
36303;SDS011;22335;49.800;8.596;2024-03-23T03:00:06;28.20;;;25.58;;
36303;SDS011;22335;49.800;8.596;2024-03-23T03:06:52;28.83;;;26.23;;
36303;SDS011;22335;49.800;8.596;2024-03-23T03:13:35;27.55;;;25.08;;
36303;SDS011;22335;49.800;8.596;2024-03-23T03:20:17;28.20;;;25.70;;
36303;SDS011;22335;49.800;8.596;2024-03-23T03:27:01;27.83;;;25.30;;
36303;SDS011;22335;49.800;8.596;2024-03-23T03:33:45;28.10;;;25.65;;
36303;SDS011;22335;49.800;8.596;2024-03-23T03:40:27;29.17;;;26.45;;
36303;SDS011;22335;49.800;8.596;2024-03-23T04:02:14;31.23;;;28.10;;
36303;SDS011;22335;49.800;8.596;2024-03-23T04:08:56;31.30;;;28.10;;
36303;SDS011;22335;49.800;8.596;2024-03-23T04:15:39;32.42;;;29.00;;
36303;SDS011;22335;49.800;8.596;2024-03-23T04:22:23;32.30;;;28.75;;
36303;SDS011;22335;49.800;8.596;2024-03-23T04:29:07;32.38;;;28.80;;
36303;SDS011;22335;49.800;8.596;2024-03-23T04:35:49;32.63;;;29.23;;
36303;SDS011;22335;49.800;8.596;2024-03-23T04:42:33;26.67;;;24.17;;
36303;SDS011;22335;49.800;8.596;2024-03-23T04:49:16;23.42;;;21.42;;
36303;SDS011;22335;49.800;8.596;2024-03-23T04:55:58;22.50;;;20.60;;
36303;SDS011;22335;49.800;8.596;2024-03-23T05:02:42;19.70;;;18.23;;
36303;SDS011;22335;49.800;8.596;2024-03-23T05:09:26;17.98;;;16.70;;
36303;SDS011;22335;49.800;8.596;2024-03-23T05:16:10;16.52;;;15.60;;
36303;SDS011;22335;49.800;8.596;2024-03-23T05:22:54;16.80;;;15.80;;
36303;SDS011;22335;49.800;8.596;2024-03-23T05:29:37;17.70;;;16.50;;
36303;SDS011;22335;49.800;8.596;2024-03-23T05:36:19;17.48;;;16.30;;
36303;SDS011;22335;49.800;8.596;2024-03-23T05:43:03;16.30;;;15.40;;
36303;SDS011;22335;49.800;8.596;2024-03-23T05:49:46;17.40;;;16.40;;
36303;SDS011;22335;49.800;8.596;2024-03-23T05:56:29;17.55;;;16.45;;
36303;SDS011;22335;49.800;8.596;2024-03-23T06:03:13;17.70;;;16.60;;
36303;SDS011;22335;49.800;8.596;2024-03-23T06:09:55;18.80;;;17.70;;
36303;SDS011;22335;49.800;8.596;2024-03-23T06:16:38;17.60;;;16.60;;
36303;SDS011;22335;49.800;8.596;2024-03-23T06:23:22;16.85;;;15.82;;
36303;SDS011;22335;49.800;8.596;2024-03-23T06:30:05;16.20;;;15.40;;
36303;SDS011;22335;49.800;8.596;2024-03-23T06:36:48;16.23;;;15.32;;
36303;SDS011;22335;49.800;8.596;2024-03-23T06:43:32;17.00;;;16.20;;
36303;SDS011;22335;49.800;8.596;2024-03-23T06:50:15;16.80;;;15.90;;
36303;SDS011;22335;49.800;8.596;2024-03-23T06:56:58;17.40;;;16.50;;
36303;SDS011;22335;49.800;8.596;2024-03-23T07:03:42;16.48;;;15.68;;
36303;SDS011;22335;49.800;8.596;2024-03-23T07:10:24;17.52;;;16.63;;
36303;SDS011;22335;49.800;8.596;2024-03-23T07:17:07;18.02;;;17.10;;
36303;SDS011;22335;49.800;8.596;2024-03-23T07:23:51;18.00;;;17.10;;
36303;SDS011;22335;49.800;8.596;2024-03-23T07:30:33;19.02;;;17.67;;
36303;SDS011;22335;49.800;8.596;2024-03-23T07:37:16;17.70;;;16.70;;
36303;SDS011;22335;49.800;8.596;2024-03-23T07:44:00;18.65;;;17.55;;
36303;SDS011;22335;49.800;8.596;2024-03-23T07:50:42;18.00;;;16.70;;
36303;SDS011;22335;49.800;8.596;2024-03-23T07:57:25;19.90;;;18.40;;
36303;SDS011;22335;49.800;8.596;2024-03-23T08:04:09;18.60;;;17.30;;
36303;SDS011;22335;49.800;8.596;2024-03-23T08:10:51;19.70;;;18.50;;
36303;SDS011;22335;49.800;8.596;2024-03-23T08:17:34;19.20;;;17.80;;
36303;SDS011;22335;49.800;8.596;2024-03-23T08:24:18;20.13;;;18.63;;
36303;SDS011;22335;49.800;8.596;2024-03-23T08:31:02;20.65;;;19.00;;
36303;SDS011;22335;49.800;8.596;2024-03-23T08:37:47;19.75;;;18.30;;
36303;SDS011;22335;49.800;8.596;2024-03-23T08:44:31;20.65;;;19.10;;
36303;SDS011;22335;49.800;8.596;2024-03-23T08:51:14;19.10;;;17.55;;
36303;SDS011;22335;49.800;8.596;2024-03-23T08:57:58;19.63;;;18.08;;
36303;SDS011;22335;49.800;8.596;2024-03-23T09:04:42;19.88;;;18.20;;
36303;SDS011;22335;49.800;8.596;2024-03-23T09:11:26;20.00;;;18.27;;
36303;SDS011;22335;49.800;8.596;2024-03-23T09:18:09;19.30;;;17.80;;
36303;SDS011;22335;49.800;8.596;2024-03-23T09:24:52;20.10;;;18.38;;
36303;SDS011;22335;49.800;8.596;2024-03-23T09:31:35;19.65;;;17.60;;
36303;SDS011;22335;49.800;8.596;2024-03-23T09:38:18;19.17;;;17.60;;
36303;SDS011;22335;49.800;8.596;2024-03-23T09:45:02;19.40;;;17.90;;
36303;SDS011;22335;49.800;8.596;2024-03-23T09:51:49;18.63;;;16.92;;
36303;SDS011;22335;49.800;8.596;2024-03-23T09:58:31;18.90;;;17.30;;
36303;SDS011;22335;49.800;8.596;2024-03-23T10:05:21;19.52;;;17.90;;
36303;SDS011;22335;49.800;8.596;2024-03-23T10:12:08;17.60;;;16.30;;
36303;SDS011;22335;49.800;8.596;2024-03-23T10:18:52;17.50;;;15.75;;
36303;SDS011;22335;49.800;8.596;2024-03-23T10:25:36;17.77;;;16.15;;
36303;SDS011;22335;49.800;8.596;2024-03-23T10:32:19;17.52;;;15.68;;
36303;SDS011;22335;49.800;8.596;2024-03-23T10:39:02;17.80;;;15.90;;
36303;SDS011;22335;49.800;8.596;2024-03-23T10:45:46;17.15;;;15.70;;
36303;SDS011;22335;49.800;8.596;2024-03-23T10:52:30;18.00;;;15.80;;
36303;SDS011;22335;49.800;8.596;2024-03-23T10:59:13;17.13;;;15.68;;
36303;SDS011;22335;49.800;8.596;2024-03-23T11:05:58;17.00;;;15.80;;
36303;SDS011;22335;49.800;8.596;2024-03-23T11:12:41;16.70;;;15.63;;
36303;SDS011;22335;49.800;8.596;2024-03-23T11:19:33;18.27;;;16.98;;
36303;SDS011;22335;49.800;8.596;2024-03-23T11:26:18;19.38;;;17.77;;
36303;SDS011;22335;49.800;8.596;2024-03-23T11:33:01;19.55;;;17.95;;
36303;SDS011;22335;49.800;8.596;2024-03-23T11:39:45;18.98;;;17.70;;
36303;SDS011;22335;49.800;8.596;2024-03-23T11:46:30;17.55;;;16.45;;
36303;SDS011;22335;49.800;8.596;2024-03-23T11:53:14;16.65;;;15.77;;
36303;SDS011;22335;49.800;8.596;2024-03-23T11:59:58;16.55;;;15.45;;
36303;SDS011;22335;49.800;8.596;2024-03-23T12:06:42;17.17;;;16.15;;
36303;SDS011;22335;49.800;8.596;2024-03-23T12:13:24;17.10;;;16.02;;
36303;SDS011;22335;49.800;8.596;2024-03-23T12:20:07;15.80;;;14.70;;
36303;SDS011;22335;49.800;8.596;2024-03-23T12:26:52;16.65;;;15.48;;
36303;SDS011;22335;49.800;8.596;2024-03-23T12:33:34;16.40;;;15.30;;
36303;SDS011;22335;49.800;8.596;2024-03-23T12:40:17;16.92;;;15.75;;
36303;SDS011;22335;49.800;8.596;2024-03-23T12:47:01;17.08;;;15.85;;
36303;SDS011;22335;49.800;8.596;2024-03-23T12:53:44;18.50;;;17.08;;
36303;SDS011;22335;49.800;8.596;2024-03-23T13:00:26;18.83;;;17.48;;
36303;SDS011;22335;49.800;8.596;2024-03-23T13:07:10;18.35;;;17.15;;
36303;SDS011;22335;49.800;8.596;2024-03-23T13:13:53;18.40;;;17.02;;
36303;SDS011;22335;49.800;8.596;2024-03-23T13:20:36;17.40;;;16.20;;
36303;SDS011;22335;49.800;8.596;2024-03-23T13:27:20;18.25;;;17.02;;
36303;SDS011;22335;49.800;8.596;2024-03-23T13:34:02;17.70;;;16.50;;
36303;SDS011;22335;49.800;8.596;2024-03-23T13:40:51;17.42;;;16.20;;
36303;SDS011;22335;49.800;8.596;2024-03-23T13:47:36;15.75;;;14.85;;
36303;SDS011;22335;49.800;8.596;2024-03-23T13:54:18;16.00;;;15.07;;
36303;SDS011;22335;49.800;8.596;2024-03-23T14:01:01;15.73;;;14.70;;
36303;SDS011;22335;49.800;8.596;2024-03-23T14:07:45;16.58;;;15.60;;
36303;SDS011;22335;49.800;8.596;2024-03-23T14:14:28;15.93;;;15.00;;
36303;SDS011;22335;49.800;8.596;2024-03-23T14:21:10;16.90;;;15.70;;
36303;SDS011;22335;49.800;8.596;2024-03-23T14:27:54;16.60;;;15.60;;
36303;SDS011;22335;49.800;8.596;2024-03-23T14:34:38;15.85;;;14.80;;
36303;SDS011;22335;49.800;8.596;2024-03-23T14:41:21;15.40;;;14.50;;
36303;SDS011;22335;49.800;8.596;2024-03-23T14:48:05;16.40;;;15.50;;
36303;SDS011;22335;49.800;8.596;2024-03-23T14:54:49;15.88;;;14.88;;
36303;SDS011;22335;49.800;8.596;2024-03-23T15:01:31;16.50;;;15.60;;
36303;SDS011;22335;49.800;8.596;2024-03-23T15:08:15;15.80;;;15.00;;
36303;SDS011;22335;49.800;8.596;2024-03-23T15:14:58;16.85;;;15.95;;
36303;SDS011;22335;49.800;8.596;2024-03-23T15:21:41;16.00;;;15.00;;
36303;SDS011;22335;49.800;8.596;2024-03-23T15:28:25;16.90;;;15.60;;
36303;SDS011;22335;49.800;8.596;2024-03-23T15:35:18;15.60;;;14.60;;
36303;SDS011;22335;49.800;8.596;2024-03-23T15:42:03;16.65;;;15.70;;
36303;SDS011;22335;49.800;8.596;2024-03-23T15:48:48;16.23;;;15.20;;
36303;SDS011;22335;49.800;8.596;2024-03-23T15:55:31;15.70;;;14.80;;
36303;SDS011;22335;49.800;8.596;2024-03-23T16:02:16;16.50;;;15.60;;
36303;SDS011;22335;49.800;8.596;2024-03-23T16:09:00;17.00;;;16.00;;
36303;SDS011;22335;49.800;8.596;2024-03-23T16:15:43;16.00;;;15.20;;
36303;SDS011;22335;49.800;8.596;2024-03-23T16:22:25;16.42;;;15.63;;
36303;SDS011;22335;49.800;8.596;2024-03-23T16:29:09;17.00;;;16.10;;
36303;SDS011;22335;49.800;8.596;2024-03-23T16:35:56;15.88;;;14.80;;
36303;SDS011;22335;49.800;8.596;2024-03-23T16:42:39;16.00;;;15.10;;
36303;SDS011;22335;49.800;8.596;2024-03-23T16:49:25;15.98;;;15.07;;
36303;SDS011;22335;49.800;8.596;2024-03-23T16:56:08;16.70;;;15.70;;
36303;SDS011;22335;49.800;8.596;2024-03-23T17:02:52;16.85;;;15.77;;
36303;SDS011;22335;49.800;8.596;2024-03-23T17:09:36;16.58;;;15.70;;
36303;SDS011;22335;49.800;8.596;2024-03-23T17:16:29;16.30;;;15.40;;
36303;SDS011;22335;49.800;8.596;2024-03-23T17:23:11;17.40;;;16.50;;
36303;SDS011;22335;49.800;8.596;2024-03-23T17:29:55;18.00;;;16.90;;
36303;SDS011;22335;49.800;8.596;2024-03-23T17:36:38;18.88;;;17.67;;
36303;SDS011;22335;49.800;8.596;2024-03-23T17:43:20;18.10;;;17.10;;
36303;SDS011;22335;49.800;8.596;2024-03-23T17:50:05;17.83;;;16.70;;
36303;SDS011;22335;49.800;8.596;2024-03-23T17:56:49;17.83;;;16.73;;
36303;SDS011;22335;49.800;8.596;2024-03-23T18:03:32;17.88;;;16.98;;
36303;SDS011;22335;49.800;8.596;2024-03-23T18:10:16;17.10;;;16.20;;
36303;SDS011;22335;49.800;8.596;2024-03-23T18:16:58;16.63;;;15.48;;
36303;SDS011;22335;49.800;8.596;2024-03-23T18:23:41;16.70;;;15.80;;
36303;SDS011;22335;49.800;8.596;2024-03-23T18:30:24;17.63;;;16.40;;
36303;SDS011;22335;49.800;8.596;2024-03-23T18:37:07;17.90;;;16.70;;
36303;SDS011;22335;49.800;8.596;2024-03-23T18:43:50;17.02;;;16.00;;
36303;SDS011;22335;49.800;8.596;2024-03-23T18:50:35;17.38;;;16.40;;
36303;SDS011;22335;49.800;8.596;2024-03-23T18:57:18;17.75;;;16.80;;
36303;SDS011;22335;49.800;8.596;2024-03-23T19:04:00;17.20;;;16.20;;
36303;SDS011;22335;49.800;8.596;2024-03-23T19:10:51;18.02;;;16.85;;
36303;SDS011;22335;49.800;8.596;2024-03-23T19:17:35;18.08;;;17.08;;
36303;SDS011;22335;49.800;8.596;2024-03-23T19:24:19;18.42;;;17.40;;
36303;SDS011;22335;49.800;8.596;2024-03-23T19:31:03;18.13;;;16.92;;
36303;SDS011;22335;49.800;8.596;2024-03-23T19:37:48;18.52;;;17.42;;
36303;SDS011;22335;49.800;8.596;2024-03-23T19:44:31;18.73;;;17.50;;
36303;SDS011;22335;49.800;8.596;2024-03-23T19:51:16;18.00;;;16.80;;
36303;SDS011;22335;49.800;8.596;2024-03-23T19:57:58;18.48;;;17.38;;
36303;SDS011;22335;49.800;8.596;2024-03-23T20:04:41;18.23;;;17.10;;
36303;SDS011;22335;49.800;8.596;2024-03-23T20:11:25;18.63;;;17.60;;
36303;SDS011;22335;49.800;8.596;2024-03-23T20:18:08;18.67;;;17.45;;
36303;SDS011;22335;49.800;8.596;2024-03-23T20:24:50;17.88;;;16.88;;
36303;SDS011;22335;49.800;8.596;2024-03-23T20:31:35;19.05;;;17.95;;
36303;SDS011;22335;49.800;8.596;2024-03-23T20:38:17;19.08;;;17.90;;
36303;SDS011;22335;49.800;8.596;2024-03-23T20:45:01;19.45;;;18.25;;
36303;SDS011;22335;49.800;8.596;2024-03-23T20:51:46;19.23;;;18.05;;
36303;SDS011;22335;49.800;8.596;2024-03-23T20:58:29;20.00;;;18.90;;
36303;SDS011;22335;49.800;8.596;2024-03-23T21:05:13;20.88;;;19.58;;
36303;SDS011;22335;49.800;8.596;2024-03-23T21:11:57;20.10;;;18.90;;
36303;SDS011;22335;49.800;8.596;2024-03-23T21:18:40;20.80;;;19.60;;
36303;SDS011;22335;49.800;8.596;2024-03-23T21:25:22;20.85;;;19.60;;
36303;SDS011;22335;49.800;8.596;2024-03-23T21:32:06;22.65;;;21.25;;
36303;SDS011;22335;49.800;8.596;2024-03-23T21:38:49;22.40;;;21.00;;
36303;SDS011;22335;49.800;8.596;2024-03-23T21:45:32;22.63;;;21.38;;
36303;SDS011;22335;49.800;8.596;2024-03-23T21:52:16;22.15;;;20.75;;
36303;SDS011;22335;49.800;8.596;2024-03-23T21:58:58;22.77;;;21.23;;
36303;SDS011;22335;49.800;8.596;2024-03-23T22:05:41;22.73;;;21.23;;
36303;SDS011;22335;49.800;8.596;2024-03-23T22:12:25;23.00;;;21.60;;
36303;SDS011;22335;49.800;8.596;2024-03-23T22:19:08;23.63;;;22.20;;
36303;SDS011;22335;49.800;8.596;2024-03-23T22:25:50;23.52;;;21.92;;
36303;SDS011;22335;49.800;8.596;2024-03-23T22:32:34;23.85;;;22.15;;
36303;SDS011;22335;49.800;8.596;2024-03-23T22:39:17;22.42;;;20.92;;
36303;SDS011;22335;49.800;8.596;2024-03-23T22:46:00;22.27;;;20.80;;
36303;SDS011;22335;49.800;8.596;2024-03-23T22:52:46;21.83;;;20.42;;
36303;SDS011;22335;49.800;8.596;2024-03-23T22:59:29;21.90;;;20.60;;
36303;SDS011;22335;49.800;8.596;2024-03-23T23:06:12;22.73;;;21.38;;
36303;SDS011;22335;49.800;8.596;2024-03-23T23:12:56;22.77;;;21.30;;
36303;SDS011;22335;49.800;8.596;2024-03-23T23:19:39;22.70;;;21.30;;
36303;SDS011;22335;49.800;8.596;2024-03-23T23:26:22;22.48;;;21.00;;
36303;SDS011;22335;49.800;8.596;2024-03-23T23:33:06;22.95;;;21.38;;
36303;SDS011;22335;49.800;8.596;2024-03-23T23:39:48;21.73;;;20.20;;
36303;SDS011;22335;49.800;8.596;2024-03-23T23:46:31;22.40;;;20.80;;
36303;SDS011;22335;49.800;8.596;2024-03-23T23:53:15;22.60;;;21.10;;
36303;SDS011;22335;49.800;8.596;2024-03-23T23:59:58;22.50;;;20.95;;
